createdAt,value
2019-03-22T00:01:38.662Z,-0.79
2019-03-22T00:04:07.594Z,-0.86
2019-03-22T00:06:36.313Z,-0.97
2019-03-22T00:09:05.760Z,-1.01
2019-03-22T00:11:34.689Z,-1.00
2019-03-22T00:14:03.086Z,-0.98
2019-03-22T00:16:31.574Z,-0.97
2019-03-22T00:18:59.998Z,-0.90
2019-03-22T00:21:28.396Z,-0.97
2019-03-22T00:23:56.986Z,-0.97
2019-03-22T00:26:25.168Z,-1.02
2019-03-22T00:28:53.738Z,-1.11
2019-03-22T00:31:21.873Z,-1.20
2019-03-22T00:33:50.306Z,-1.22
2019-03-22T00:36:19.756Z,-1.22
2019-03-22T00:38:48.518Z,-1.25
2019-03-22T00:41:17.533Z,-0.71
2019-03-22T00:43:46.019Z,-0.79
2019-03-22T00:46:15.476Z,-0.86
2019-03-22T00:48:44.211Z,-1.03
2019-03-22T00:51:12.014Z,-1.11
2019-03-22T00:53:40.595Z,-1.12
2019-03-22T00:56:08.998Z,-1.12
2019-03-22T00:58:37.567Z,-0.98
2019-03-22T01:01:06.176Z,-0.61
2019-03-22T01:03:34.774Z,-0.44
2019-03-22T01:06:03.431Z,-0.14
2019-03-22T01:08:32.344Z,0.03
2019-03-22T01:11:01.789Z,0.15
2019-03-22T01:13:30.240Z,0.03
2019-03-22T01:15:58.794Z,0.12
2019-03-22T01:18:27.785Z,0.29
2019-03-22T01:20:56.675Z,-0.23
2019-03-22T01:23:25.232Z,-0.23
2019-03-22T01:25:54.349Z,-0.36
2019-03-22T01:28:22.956Z,-0.35
2019-03-22T01:30:51.693Z,-0.50
2019-03-22T01:33:20.539Z,-0.80
2019-03-22T01:35:49.003Z,-1.08
2019-03-22T01:38:17.500Z,-1.21
2019-03-22T01:40:45.591Z,-1.11
2019-03-22T01:43:14.095Z,-1.12
2019-03-22T01:45:43.481Z,-1.30
2019-03-22T01:48:12.831Z,-1.35
2019-03-22T01:50:41.231Z,-1.10
2019-03-22T01:53:09.800Z,-0.58
2019-03-22T01:55:39.291Z,-0.38
2019-03-22T01:58:07.389Z,-0.45
2019-03-22T02:00:37.813Z,-0.68
2019-03-22T02:03:06.498Z,-0.90
2019-03-22T02:05:35.617Z,-1.12
2019-03-22T02:08:04.885Z,-1.26
2019-03-22T02:10:32.949Z,-1.33
2019-03-22T02:13:01.038Z,-1.41
2019-03-22T02:15:29.363Z,-1.52
2019-03-22T02:17:57.838Z,-1.55
2019-03-22T02:20:25.931Z,-1.61
2019-03-22T02:22:54.680Z,-1.67
2019-03-22T02:25:23.369Z,-1.74
2019-03-22T02:28:03.445Z,-1.82
2019-03-22T02:30:22.369Z,-1.91
2019-03-22T02:32:51.625Z,-1.80
2019-03-22T02:35:28.822Z,-1.30
2019-03-22T02:37:53.452Z,-1.30
2019-03-22T02:40:26.043Z,20.95
2019-03-22T02:42:57.202Z,-1.42
2019-03-22T02:45:25.454Z,-1.64
2019-03-22T02:47:53.541Z,-1.64
2019-03-22T02:50:21.396Z,-1.50
2019-03-22T02:52:51.074Z,-1.73
2019-03-22T02:55:19.210Z,-1.73
2019-03-22T02:57:47.077Z,-1.67
2019-03-22T03:00:17.279Z,-1.67
2019-03-22T03:02:47.085Z,-1.67
2019-03-22T03:05:15.423Z,-1.75
2019-03-22T03:07:44.198Z,-1.70
2019-03-22T03:10:13.048Z,-1.63
2019-03-22T03:12:41.446Z,-1.48
2019-03-22T03:15:10.861Z,-1.40
2019-03-22T03:17:39.471Z,-1.48
2019-03-22T03:20:09.526Z,-1.49
2019-03-22T03:22:38.841Z,-1.55
2019-03-22T03:25:08.059Z,-1.49
2019-03-22T03:27:37.055Z,-1.63
2019-03-22T03:30:06.523Z,-1.63
2019-03-22T03:32:35.522Z,-1.50
2019-03-22T03:35:05.431Z,-1.50
2019-03-22T03:37:34.417Z,-1.65
2019-03-22T03:40:03.392Z,-1.79
2019-03-22T03:42:32.012Z,-1.88
2019-03-22T03:45:00.732Z,-1.86
2019-03-22T03:47:29.338Z,-1.96
2019-03-22T03:49:58.208Z,-2.07
2019-03-22T03:52:32.078Z,-1.93
2019-03-22T03:54:59.853Z,-1.78
2019-03-22T03:57:27.950Z,-1.76
2019-03-22T03:59:56.662Z,-1.75
2019-03-22T04:02:24.913Z,-1.87
2019-03-22T04:04:54.339Z,-2.23
2019-03-22T04:07:25.526Z,-2.23
2019-03-22T04:09:53.461Z,-2.26
2019-03-22T04:12:21.763Z,-2.35
2019-03-22T04:14:50.188Z,-2.33
2019-03-22T04:17:18.365Z,-2.37
2019-03-22T04:19:46.821Z,-2.33
2019-03-22T04:22:15.459Z,-2.30
2019-03-22T04:24:44.323Z,-2.23
2019-03-22T04:27:12.089Z,-2.18
2019-03-22T04:29:41.655Z,-2.32
2019-03-22T04:32:09.767Z,-2.39
2019-03-22T04:34:39.277Z,-2.35
2019-03-22T04:37:07.510Z,-2.32
2019-03-22T04:39:35.920Z,-2.37
2019-03-22T04:42:04.147Z,-2.37
2019-03-22T04:44:32.839Z,-2.40
2019-03-22T04:47:04.455Z,-2.42
2019-03-22T04:49:33.460Z,-2.48
2019-03-22T04:52:03.717Z,-2.47
2019-03-22T04:54:33.751Z,-2.46
2019-03-22T04:57:02.392Z,-2.48
2019-03-22T04:59:31.659Z,-2.52
2019-03-22T05:02:01.939Z,-2.47
2019-03-22T05:04:30.960Z,-2.47
2019-03-22T05:07:00.367Z,-2.28
2019-03-22T05:09:29.873Z,-2.19
2019-03-22T05:12:00.274Z,-2.17
2019-03-22T05:14:29.912Z,-2.11
2019-03-22T05:16:58.182Z,-2.10
2019-03-22T05:19:28.302Z,-1.93
2019-03-22T05:21:57.194Z,-1.79
2019-03-22T05:24:25.525Z,-1.57
2019-03-22T05:26:56.308Z,-1.29
2019-03-22T05:29:30.585Z,-1.09
2019-03-22T05:32:05.441Z,-1.08
2019-03-22T05:34:34.394Z,-0.97
2019-03-22T05:37:02.647Z,-0.30
2019-03-22T05:39:30.838Z,-0.23
2019-03-22T05:42:00.019Z,-0.58
2019-03-22T05:44:27.929Z,-0.84
2019-03-22T05:46:56.637Z,-0.98
2019-03-22T05:49:24.901Z,-1.00
2019-03-22T05:51:52.949Z,-0.83
2019-03-22T05:54:21.659Z,-0.83
2019-03-22T05:56:49.512Z,-0.64
2019-03-22T05:59:19.838Z,-0.50
2019-03-22T06:01:48.012Z,-0.41
2019-03-22T06:04:16.678Z,-0.21
2019-03-22T06:06:44.773Z,-0.06
2019-03-22T06:09:12.975Z,0.10
2019-03-22T06:11:41.191Z,0.36
2019-03-22T06:14:10.186Z,0.52
2019-03-22T06:16:38.267Z,0.58
2019-03-22T06:19:06.775Z,0.66
2019-03-22T06:21:34.762Z,0.81
2019-03-22T06:24:03.102Z,0.82
2019-03-22T06:26:31.174Z,0.86
2019-03-22T06:28:59.289Z,1.03
2019-03-22T06:31:27.419Z,1.34
2019-03-22T06:33:57.052Z,1.61
2019-03-22T06:36:27.240Z,1.79
2019-03-22T06:38:55.045Z,1.92
2019-03-22T06:41:24.133Z,2.08
2019-03-22T06:43:52.196Z,2.26
2019-03-22T06:46:20.829Z,2.48
2019-03-22T06:48:49.435Z,2.72
2019-03-22T06:51:18.337Z,2.99
2019-03-22T06:53:48.406Z,3.26
2019-03-22T06:56:17.763Z,3.44
2019-03-22T06:58:45.988Z,3.68
2019-03-22T07:01:15.097Z,3.86
2019-03-22T07:03:43.193Z,4.09
2019-03-22T07:06:11.295Z,4.34
2019-03-22T07:08:39.411Z,4.51
2019-03-22T07:11:07.522Z,4.70
2019-03-22T07:13:35.575Z,4.91
2019-03-22T07:16:03.786Z,5.17
2019-03-22T07:18:32.491Z,5.34
2019-03-22T07:21:00.714Z,5.48
2019-03-22T07:23:29.160Z,5.64
2019-03-22T07:25:57.181Z,5.75
2019-03-22T07:28:25.104Z,5.90
2019-03-22T07:30:53.631Z,5.99
2019-03-22T07:33:21.397Z,6.03
2019-03-22T07:35:51.019Z,6.22
2019-03-22T07:38:19.717Z,6.15
2019-03-22T07:40:48.321Z,6.45
2019-03-22T07:43:17.008Z,6.59
2019-03-22T07:45:44.789Z,6.72
2019-03-22T07:48:12.893Z,6.72
2019-03-22T07:50:41.440Z,6.68
2019-03-22T07:53:09.653Z,6.93
2019-03-22T07:55:39.451Z,7.02
2019-03-22T07:58:07.547Z,6.86
2019-03-22T08:00:35.420Z,7.13
2019-03-22T08:03:03.552Z,7.30
2019-03-22T08:05:32.021Z,7.05
2019-03-22T08:08:01.549Z,7.21
2019-03-22T08:10:29.612Z,7.29
2019-03-22T08:12:57.993Z,7.50
2019-03-22T08:15:31.798Z,7.85
2019-03-22T08:18:00.187Z,7.67
2019-03-22T08:20:28.305Z,7.69
2019-03-22T08:22:56.760Z,7.76
2019-03-22T08:25:25.827Z,7.66
2019-03-22T08:27:54.024Z,8.00
2019-03-22T08:30:22.594Z,7.95
2019-03-22T08:32:50.776Z,7.96
2019-03-22T08:35:18.814Z,7.93
2019-03-22T08:37:52.436Z,8.25
2019-03-22T08:40:17.317Z,8.42
2019-03-22T08:42:49.106Z,8.34
2019-03-22T08:45:18.383Z,8.64
2019-03-22T08:47:46.210Z,8.65
2019-03-22T08:50:14.303Z,8.78
2019-03-22T08:52:42.997Z,8.97
2019-03-22T08:55:11.977Z,9.28
2019-03-22T08:57:40.581Z,9.17
2019-03-22T09:00:08.962Z,9.31
2019-03-22T09:02:37.648Z,9.30
2019-03-22T09:05:05.926Z,9.41
2019-03-22T09:07:34.106Z,9.46
2019-03-22T09:10:02.490Z,9.58
2019-03-22T09:12:31.457Z,9.52
2019-03-22T09:14:59.602Z,9.80
2019-03-22T09:17:28.404Z,9.65
2019-03-22T09:19:56.605Z,9.50
2019-03-22T09:22:25.045Z,9.77
2019-03-22T09:24:53.327Z,10.06
2019-03-22T09:27:21.106Z,10.09
2019-03-22T09:29:50.121Z,10.33
2019-03-22T09:32:19.971Z,10.60
2019-03-22T09:34:48.007Z,10.79
2019-03-22T09:37:15.808Z,10.84
2019-03-22T09:39:44.902Z,10.67
2019-03-22T09:42:13.023Z,10.73
2019-03-22T09:44:45.250Z,10.98
2019-03-22T09:47:11.133Z,10.98
2019-03-22T09:49:39.139Z,10.80
2019-03-22T09:52:07.665Z,10.94
2019-03-22T09:54:35.966Z,11.02
2019-03-22T09:57:05.254Z,11.22
2019-03-22T09:59:33.392Z,11.53
2019-03-22T10:02:01.652Z,11.82
2019-03-22T10:04:29.673Z,11.75
2019-03-22T10:06:58.361Z,11.86
2019-03-22T10:09:26.954Z,11.79
2019-03-22T10:11:54.862Z,11.55
2019-03-22T10:14:23.451Z,11.82
2019-03-22T10:16:51.980Z,12.09
2019-03-22T10:19:21.932Z,12.10
2019-03-22T10:21:52.395Z,12.03
2019-03-22T10:24:20.874Z,12.19
2019-03-22T10:26:49.678Z,11.83
2019-03-22T10:29:17.669Z,12.29
2019-03-22T10:31:45.697Z,12.17
2019-03-22T10:34:14.144Z,12.02
2019-03-22T10:36:44.385Z,12.22
2019-03-22T10:39:13.177Z,12.41
2019-03-22T10:41:41.637Z,12.65
2019-03-22T10:44:09.618Z,12.46
2019-03-22T10:46:38.193Z,12.75
2019-03-22T10:49:06.027Z,12.75
2019-03-22T10:51:34.247Z,12.79
2019-03-22T10:54:02.321Z,13.02
2019-03-22T10:56:30.171Z,13.11
2019-03-22T10:58:58.437Z,13.13
2019-03-22T11:01:26.537Z,12.95
2019-03-22T11:03:55.792Z,13.09
2019-03-22T11:06:26.396Z,13.42
2019-03-22T11:08:54.075Z,13.23
2019-03-22T11:11:22.934Z,13.71
2019-03-22T11:13:52.278Z,13.62
2019-03-22T11:16:20.380Z,13.86
2019-03-22T11:18:48.779Z,13.82
2019-03-22T11:21:16.996Z,13.58
2019-03-22T11:23:46.410Z,13.45
2019-03-22T11:26:14.141Z,13.61
2019-03-22T11:28:44.488Z,13.65
2019-03-22T11:31:12.494Z,13.70
2019-03-22T11:33:40.504Z,14.07
2019-03-22T11:36:09.133Z,13.81
2019-03-22T11:38:37.370Z,14.11
2019-03-22T11:41:05.626Z,14.05
2019-03-22T11:43:34.082Z,14.05
2019-03-22T11:46:02.886Z,14.10
2019-03-22T11:48:30.850Z,14.19
2019-03-22T11:50:58.810Z,14.13
2019-03-22T11:53:28.018Z,14.15
2019-03-22T11:55:56.059Z,14.62
2019-03-22T11:58:25.671Z,14.53
2019-03-22T12:00:53.837Z,14.81
2019-03-22T12:03:21.970Z,14.80
2019-03-22T12:05:51.862Z,14.86
2019-03-22T12:08:20.452Z,15.03
2019-03-22T12:10:48.596Z,15.03
2019-03-22T12:13:16.769Z,15.29
2019-03-22T12:15:45.500Z,15.47
2019-03-22T12:18:14.193Z,15.41
2019-03-22T12:20:42.450Z,15.51
2019-03-22T12:23:10.583Z,15.74
2019-03-22T12:25:39.185Z,15.68
2019-03-22T12:28:07.201Z,15.59
2019-03-22T12:30:35.448Z,15.53
2019-03-22T12:33:03.908Z,15.50
2019-03-22T12:35:32.451Z,15.58
2019-03-22T12:38:00.586Z,15.74
2019-03-22T12:40:28.968Z,16.10
2019-03-22T12:42:57.097Z,15.69
2019-03-22T12:45:25.907Z,15.69
2019-03-22T12:47:55.084Z,15.46
2019-03-22T12:50:23.550Z,15.53
2019-03-22T12:52:52.028Z,15.63
2019-03-22T12:55:20.665Z,15.60
2019-03-22T12:57:48.702Z,15.69
2019-03-22T13:00:18.769Z,15.39
2019-03-22T13:02:46.774Z,15.61
2019-03-22T13:05:18.766Z,15.90
2019-03-22T13:07:48.685Z,15.88
2019-03-22T13:10:17.885Z,16.05
2019-03-22T13:12:45.813Z,15.93
2019-03-22T13:15:14.329Z,15.60
2019-03-22T13:17:42.565Z,15.44
2019-03-22T13:20:10.671Z,15.51
2019-03-22T13:22:38.700Z,15.53
2019-03-22T13:25:09.476Z,15.75
2019-03-22T13:27:38.067Z,15.55
2019-03-22T13:30:06.582Z,15.59
2019-03-22T13:32:35.801Z,15.84
2019-03-22T13:35:04.488Z,15.71
2019-03-22T13:37:32.699Z,15.57
2019-03-22T13:40:00.644Z,15.65
2019-03-22T13:42:31.795Z,15.70
2019-03-22T13:45:00.358Z,15.94
2019-03-22T13:47:29.389Z,16.33
2019-03-22T13:49:58.154Z,16.29
2019-03-22T13:52:26.329Z,16.22
2019-03-22T13:54:55.514Z,16.22
2019-03-22T13:57:23.700Z,16.33
2019-03-22T13:59:51.516Z,16.50
2019-03-22T14:02:19.760Z,16.24
2019-03-22T14:04:47.928Z,16.31
2019-03-22T14:07:16.187Z,16.34
2019-03-22T14:09:45.912Z,16.30
2019-03-22T14:12:14.669Z,16.49
2019-03-22T14:14:43.048Z,16.34
2019-03-22T14:17:12.069Z,16.34
2019-03-22T14:19:40.355Z,16.28
2019-03-22T14:22:09.182Z,16.47
2019-03-22T14:24:38.827Z,16.32
2019-03-22T14:27:07.330Z,16.55
2019-03-22T14:29:35.968Z,16.76
2019-03-22T14:32:04.668Z,16.61
2019-03-22T14:34:32.448Z,16.59
2019-03-22T14:37:01.220Z,16.55
2019-03-22T14:39:29.315Z,16.44
2019-03-22T14:41:57.379Z,16.34
2019-03-22T14:44:28.151Z,16.53
2019-03-22T14:46:55.858Z,16.25
2019-03-22T14:49:24.381Z,16.12
2019-03-22T14:51:52.256Z,16.10
2019-03-22T14:54:20.216Z,16.28
2019-03-22T14:56:47.980Z,16.28
2019-03-22T14:59:15.930Z,16.08
2019-03-22T15:01:45.692Z,16.11
2019-03-22T15:04:13.700Z,16.44
2019-03-22T15:06:41.685Z,16.53
2019-03-22T15:09:09.736Z,16.32
2019-03-22T15:11:38.751Z,16.32
2019-03-22T15:14:27.274Z,16.24
2019-03-22T15:17:23.790Z,16.33
2019-03-22T15:20:11.365Z,16.11
2019-03-22T15:23:14.697Z,15.94
2019-03-22T15:26:00.894Z,15.50
2019-03-22T15:28:48.037Z,15.18
2019-03-22T15:31:34.571Z,14.99
2019-03-22T15:34:20.780Z,14.83
2019-03-22T15:37:07.110Z,14.65
2019-03-22T15:39:59.821Z,14.46
2019-03-22T15:42:27.885Z,14.31
2019-03-22T15:44:56.375Z,14.12
2019-03-22T15:47:24.679Z,14.07
2019-03-22T15:49:52.721Z,13.88
2019-03-22T15:52:21.287Z,13.76
2019-03-22T15:54:50.414Z,13.65
2019-03-22T15:57:18.495Z,13.50
2019-03-22T15:59:46.951Z,13.39
2019-03-22T16:02:15.656Z,13.35
2019-03-22T16:04:45.032Z,13.26
2019-03-22T16:07:14.101Z,13.27
2019-03-22T16:09:42.985Z,13.22
2019-03-22T16:12:11.509Z,13.18
2019-03-22T16:14:39.278Z,13.29
2019-03-22T16:17:08.215Z,13.11
2019-03-22T16:19:38.656Z,13.08
2019-03-22T16:22:07.470Z,13.09
2019-03-22T16:24:35.520Z,12.83
2019-03-22T16:27:04.165Z,12.75
2019-03-22T16:29:32.204Z,12.77
2019-03-22T16:32:00.170Z,12.70
2019-03-22T16:34:29.009Z,12.96
2019-03-22T16:36:57.230Z,12.97
2019-03-22T16:39:26.480Z,12.73
2019-03-22T16:41:55.655Z,12.71
2019-03-22T16:44:24.590Z,12.54
2019-03-22T16:46:53.115Z,12.35
2019-03-22T16:49:21.179Z,12.18
2019-03-22T16:51:50.616Z,12.02
2019-03-22T16:54:18.592Z,11.85
2019-03-22T16:56:46.885Z,11.72
2019-03-22T16:59:14.885Z,11.37
2019-03-22T17:01:43.372Z,11.14
2019-03-22T17:04:12.710Z,10.82
2019-03-22T17:06:40.758Z,10.56
2019-03-22T17:09:08.808Z,10.36
2019-03-22T17:11:36.899Z,10.15
2019-03-22T17:14:05.352Z,10.03
2019-03-22T17:16:33.631Z,9.85
2019-03-22T17:19:02.707Z,9.78
2019-03-22T17:21:30.831Z,9.62
2019-03-22T17:23:58.867Z,9.39
2019-03-22T17:26:27.452Z,9.16
2019-03-22T17:28:56.113Z,9.10
2019-03-22T17:31:25.264Z,9.03
2019-03-22T17:33:53.181Z,8.92
2019-03-22T17:36:21.168Z,8.71
2019-03-22T17:38:48.957Z,8.67
2019-03-22T17:41:17.393Z,8.71
2019-03-22T17:43:45.879Z,8.53
2019-03-22T17:46:13.984Z,8.39
2019-03-22T17:48:44.232Z,8.30
2019-03-22T17:51:12.350Z,8.17
2019-03-22T17:53:40.119Z,8.10
2019-03-22T17:56:07.853Z,7.99
2019-03-22T17:58:36.073Z,7.85
2019-03-22T18:01:04.704Z,7.64
2019-03-22T18:03:33.333Z,7.47
2019-03-22T18:06:01.915Z,7.33
2019-03-22T18:08:29.674Z,7.49
2019-03-22T18:10:58.155Z,7.43
2019-03-22T18:13:27.008Z,7.09
2019-03-22T18:15:55.305Z,7.03
2019-03-22T18:18:23.573Z,7.01
2019-03-22T18:20:52.493Z,6.98
2019-03-22T18:23:20.896Z,6.93
2019-03-22T18:25:48.736Z,6.75
2019-03-22T18:28:17.563Z,6.71
2019-03-22T18:30:45.290Z,6.62
2019-03-22T18:33:14.505Z,6.48
2019-03-22T18:35:42.840Z,6.58
2019-03-22T18:38:11.028Z,6.54
2019-03-22T18:40:39.291Z,6.39
2019-03-22T18:43:07.904Z,6.33
2019-03-22T18:45:36.967Z,6.28
2019-03-22T18:48:05.421Z,6.15
2019-03-22T18:50:33.452Z,6.02
2019-03-22T18:53:01.951Z,5.96
2019-03-22T18:55:30.035Z,5.96
2019-03-22T18:57:58.009Z,5.77
2019-03-22T19:00:26.143Z,5.67
2019-03-22T19:02:54.334Z,5.63
2019-03-22T19:05:22.501Z,5.85
2019-03-22T19:07:50.286Z,5.83
2019-03-22T19:10:18.626Z,5.73
2019-03-22T19:12:47.431Z,5.65
2019-03-22T19:15:18.888Z,5.50
2019-03-22T19:17:49.256Z,5.41
2019-03-22T19:20:17.467Z,5.19
2019-03-22T19:22:46.058Z,5.08
2019-03-22T19:25:16.869Z,4.92
2019-03-22T19:27:44.212Z,4.80
2019-03-22T19:30:12.446Z,4.68
2019-03-22T19:32:40.626Z,4.64
2019-03-22T19:35:09.309Z,4.50
2019-03-22T19:37:38.062Z,4.47
2019-03-22T19:40:06.949Z,4.53
2019-03-22T19:42:36.025Z,4.72
2019-03-22T19:45:05.508Z,4.66
2019-03-22T19:47:34.181Z,4.56
2019-03-22T19:50:01.915Z,4.32
2019-03-22T19:52:30.590Z,4.34
2019-03-22T19:54:58.525Z,4.50
2019-03-22T19:57:26.523Z,4.37
2019-03-22T19:59:54.672Z,4.31
2019-03-22T20:02:23.543Z,4.17
2019-03-22T20:04:52.621Z,3.90
2019-03-22T20:07:26.866Z,3.78
2019-03-22T20:09:50.921Z,3.86
2019-03-22T20:12:19.806Z,4.00
2019-03-22T20:14:48.423Z,4.10
2019-03-22T20:17:17.687Z,3.85
2019-03-22T20:19:46.106Z,3.62
2019-03-22T20:22:14.758Z,3.46
2019-03-22T20:24:45.684Z,3.40
2019-03-22T20:27:15.020Z,3.39
2019-03-22T20:29:43.083Z,3.29
2019-03-22T20:32:11.825Z,3.20
2019-03-22T20:34:40.042Z,3.39
2019-03-22T20:37:08.766Z,3.36
2019-03-22T20:39:36.934Z,3.48
2019-03-22T20:42:04.884Z,3.50
2019-03-22T20:44:34.151Z,3.26
2019-03-22T20:47:11.412Z,3.16
2019-03-22T20:49:39.981Z,3.00
2019-03-22T20:52:07.793Z,2.75
2019-03-22T20:54:36.946Z,2.67
2019-03-22T20:57:06.114Z,2.52
2019-03-22T20:59:34.102Z,2.46
2019-03-22T21:02:04.049Z,2.58
2019-03-22T21:04:32.113Z,2.53
2019-03-22T21:07:00.754Z,2.33
2019-03-22T21:09:29.266Z,2.20
2019-03-22T21:11:57.088Z,2.26
2019-03-22T21:14:26.123Z,2.32
2019-03-22T21:16:54.394Z,2.23
2019-03-22T21:19:22.264Z,2.28
2019-03-22T21:21:51.778Z,2.30
2019-03-22T21:24:21.435Z,2.24
2019-03-22T21:26:49.829Z,2.16
2019-03-22T21:29:19.658Z,2.05
2019-03-22T21:31:47.612Z,1.98
2019-03-22T21:34:15.714Z,1.82
2019-03-22T21:36:45.586Z,1.93
2019-03-22T21:39:14.290Z,1.96
2019-03-22T21:41:42.717Z,2.09
2019-03-22T21:44:11.167Z,2.08
2019-03-22T21:46:40.534Z,1.99
2019-03-22T21:49:09.288Z,1.86
2019-03-22T21:51:40.992Z,1.91
2019-03-22T21:54:20.536Z,2.04
2019-03-22T21:56:56.507Z,1.96
2019-03-22T21:59:26.052Z,1.88
2019-03-22T22:01:59.523Z,1.83
2019-03-22T22:04:28.084Z,1.62
2019-03-22T22:06:56.421Z,1.58
2019-03-22T22:09:25.605Z,1.55
2019-03-22T22:11:56.097Z,1.45
2019-03-22T22:14:26.614Z,1.37
2019-03-22T22:16:59.416Z,1.50
2019-03-22T22:19:35.845Z,1.82
2019-03-22T22:22:04.348Z,1.74
2019-03-22T22:24:34.980Z,1.68
2019-03-22T22:27:13.449Z,1.77
2019-03-22T22:29:38.050Z,1.65
2019-03-22T22:32:07.074Z,1.68
2019-03-22T22:34:36.263Z,1.69
2019-03-22T22:37:06.214Z,1.60
2019-03-22T22:39:34.450Z,1.47
2019-03-22T22:42:06.045Z,1.43
2019-03-22T22:44:35.625Z,1.32
2019-03-22T22:47:03.850Z,1.13
2019-03-22T22:49:33.595Z,1.05
2019-03-22T22:52:01.945Z,0.98
2019-03-22T22:54:31.133Z,0.86
2019-03-22T22:56:59.309Z,0.83
2019-03-22T22:59:28.457Z,0.80
2019-03-22T23:01:57.624Z,0.77
2019-03-22T23:04:25.773Z,0.71
2019-03-22T23:06:54.484Z,0.65
2019-03-22T23:09:22.317Z,0.68
2019-03-22T23:11:51.343Z,0.87
2019-03-22T23:14:19.551Z,0.93
2019-03-22T23:16:47.799Z,1.06
2019-03-22T23:19:16.352Z,0.96
2019-03-22T23:21:44.805Z,0.87
2019-03-22T23:24:12.900Z,0.87
2019-03-22T23:26:41.623Z,0.83
2019-03-22T23:29:09.968Z,0.81
2019-03-22T23:31:38.162Z,0.78
2019-03-22T23:34:06.382Z,0.79
2019-03-22T23:36:34.183Z,0.82
2019-03-22T23:39:03.774Z,0.89
2019-03-22T23:41:31.587Z,0.60
2019-03-22T23:43:59.652Z,0.33
2019-03-22T23:46:28.249Z,0.15
2019-03-22T23:48:57.469Z,0.04
2019-03-22T23:51:25.646Z,0.01
2019-03-22T23:53:55.220Z,0.23
2019-03-22T23:56:23.305Z,0.56
2019-03-22T23:58:51.591Z,0.43
